createdAt,value
2022-11-20T00:00:04.369Z,99656.44
2022-11-20T00:02:36.300Z,99647.47
2022-11-20T00:05:04.155Z,99652.41
2022-11-20T00:07:31.975Z,99654.94
2022-11-20T00:10:00.209Z,99655.97
2022-11-20T00:12:27.973Z,99653.56
2022-11-20T00:14:57.842Z,99653.19
2022-11-20T00:17:25.715Z,99654.59
2022-11-20T00:19:54.851Z,99654.56
2022-11-20T00:22:22.482Z,99659.66
2022-11-20T00:24:50.107Z,99660.47
2022-11-20T00:27:18.061Z,99660.88
2022-11-20T00:29:46.071Z,99658.16
2022-11-20T00:32:14.184Z,99656.50
2022-11-20T00:34:42.133Z,99642.63
2022-11-20T00:37:11.470Z,99644.56
2022-11-20T00:39:39.240Z,99636.91
2022-11-20T00:42:07.225Z,99632.19
2022-11-20T00:44:37.325Z,99636.50
2022-11-20T00:47:05.332Z,99640.63
2022-11-20T00:49:34.331Z,99634.88
2022-11-20T00:52:02.008Z,99632.41
2022-11-20T00:54:31.254Z,99642.53
2022-11-20T00:56:59.281Z,99639.59
2022-11-20T00:59:27.457Z,99632.09
2022-11-20T01:01:55.332Z,99624.47
2022-11-20T01:04:23.241Z,99629.84
2022-11-20T01:06:51.036Z,99627.44
2022-11-20T01:09:18.953Z,99627.69
2022-11-20T01:11:48.338Z,99622.41
2022-11-20T01:14:17.175Z,99625.50
2022-11-20T01:16:46.681Z,99628.84
2022-11-20T01:19:18.061Z,99629.19
2022-11-20T01:21:46.899Z,99633.25
2022-11-20T01:24:17.005Z,99625.34
2022-11-20T01:26:45.674Z,99627.44
2022-11-20T01:29:17.015Z,99622.06
2022-11-20T01:31:45.418Z,99625.81
2022-11-20T01:34:14.934Z,99628.72
2022-11-20T01:36:43.339Z,99626.75
2022-11-20T01:39:13.077Z,99623.03
2022-11-20T01:41:59.838Z,99625.94
2022-11-20T01:44:47.510Z,99631.25
2022-11-20T01:47:18.256Z,99627.47
2022-11-20T01:49:48.838Z,99616.13
2022-11-20T01:52:18.231Z,99617.31
2022-11-20T01:54:49.319Z,99610.72
2022-11-20T01:57:17.954Z,99613.97
2022-11-20T01:59:49.539Z,99611.16
2022-11-20T02:02:22.032Z,99615.09
2022-11-20T02:04:52.217Z,99617.78
2022-11-20T02:07:21.072Z,99622.47
2022-11-20T02:09:49.290Z,99606.25
2022-11-20T02:12:31.012Z,99610.97
2022-11-20T02:14:59.011Z,99615.59
2022-11-20T02:17:31.465Z,99616.56
2022-11-20T02:19:59.579Z,99616.91
2022-11-20T02:22:30.169Z,99615.69
2022-11-20T02:25:00.978Z,99612.56
2022-11-20T02:27:28.872Z,99609.25
2022-11-20T02:29:59.576Z,99604.03
2022-11-20T02:32:28.076Z,99609.16
2022-11-20T02:34:58.015Z,99612.19
2022-11-20T02:37:30.229Z,99609.91
2022-11-20T02:39:59.470Z,99613.41
2022-11-20T02:42:27.402Z,99608.28
2022-11-20T02:44:55.324Z,99601.78
2022-11-20T02:47:23.102Z,99606.44
2022-11-20T02:49:51.065Z,99599.19
2022-11-20T02:52:19.041Z,99609.03
2022-11-20T02:54:46.850Z,99613.16
2022-11-20T02:57:16.123Z,99609.72
2022-11-20T02:59:43.893Z,99609.00
2022-11-20T03:02:12.047Z,99600.13
2022-11-20T03:04:42.594Z,99597.50
2022-11-20T03:07:10.810Z,99584.25
2022-11-20T03:09:38.475Z,99607.69
2022-11-20T03:12:06.889Z,99619.19
2022-11-20T03:14:36.422Z,99604.38
2022-11-20T03:17:04.158Z,99605.19
2022-11-20T03:19:31.783Z,99608.03
2022-11-20T03:21:59.491Z,99605.47
2022-11-20T03:24:27.799Z,99610.09
2022-11-20T03:26:55.624Z,99599.53
2022-11-20T03:29:23.752Z,99599.44
2022-11-20T03:31:52.875Z,99606.38
2022-11-20T03:34:20.789Z,99595.66
2022-11-20T03:36:48.564Z,99601.81
2022-11-20T03:39:16.377Z,99593.22
2022-11-20T03:41:44.551Z,99598.69
2022-11-20T03:44:13.021Z,99591.34
2022-11-20T03:46:40.913Z,99585.78
2022-11-20T03:49:10.316Z,99585.31
2022-11-20T03:51:38.022Z,99581.91
2022-11-20T03:54:07.534Z,99580.31
2022-11-20T03:56:37.083Z,99566.06
2022-11-20T03:59:05.273Z,99573.53
2022-11-20T04:01:36.632Z,99598.88
2022-11-20T04:04:05.830Z,99586.19
2022-11-20T04:06:37.593Z,99602.91
2022-11-20T04:09:05.291Z,99592.63
2022-11-20T04:11:33.858Z,99595.44
2022-11-20T04:14:03.665Z,99587.63
2022-11-20T04:16:32.147Z,99583.31
2022-11-20T04:19:01.579Z,99590.84
2022-11-20T04:21:29.361Z,99583.63
2022-11-20T04:24:02.531Z,99574.13
2022-11-20T04:26:31.167Z,99571.09
2022-11-20T04:28:59.246Z,99568.94
2022-11-20T04:31:27.966Z,99573.88
2022-11-20T04:33:56.788Z,99572.28
2022-11-20T04:36:25.799Z,99571.34
2022-11-20T04:38:56.866Z,99574.56
2022-11-20T04:41:28.227Z,99565.56
2022-11-20T04:44:00.065Z,99565.69
2022-11-20T04:46:29.361Z,99573.72
2022-11-20T04:48:57.031Z,99564.91
2022-11-20T04:51:25.111Z,99575.91
2022-11-20T04:53:53.090Z,99578.19
2022-11-20T04:56:20.773Z,99574.72
2022-11-20T04:58:49.786Z,99581.59
2022-11-20T05:01:18.286Z,99585.75
2022-11-20T05:03:46.667Z,99590.53
2022-11-20T05:06:14.956Z,99594.13
2022-11-20T05:08:42.750Z,99583.44
2022-11-20T05:11:11.450Z,99582.69
2022-11-20T05:13:40.367Z,99573.63
2022-11-20T05:16:11.555Z,99561.41
2022-11-20T05:18:39.847Z,99564.84
2022-11-20T05:21:09.002Z,99558.91
2022-11-20T05:23:37.580Z,99549.38
2022-11-20T05:26:06.124Z,99550.41
2022-11-20T05:28:34.609Z,99544.00
2022-11-20T05:31:13.328Z,99549.97
2022-11-20T05:33:43.621Z,99554.91
2022-11-20T05:36:11.982Z,99558.56
2022-11-20T05:38:39.698Z,99545.03
2022-11-20T05:41:08.025Z,99543.88
2022-11-20T05:43:37.620Z,99546.00
2022-11-20T05:46:05.970Z,99544.28
2022-11-20T05:48:35.615Z,99538.75
2022-11-20T05:51:04.360Z,99539.97
2022-11-20T05:53:34.319Z,99531.59
2022-11-20T05:56:02.852Z,99531.38
2022-11-20T05:58:30.757Z,99531.22
2022-11-20T06:01:05.567Z,99538.22
2022-11-20T06:03:33.149Z,99544.66
2022-11-20T06:06:03.432Z,99544.84
2022-11-20T06:08:31.665Z,99543.50
2022-11-20T06:10:59.459Z,99532.38
2022-11-20T06:13:27.586Z,99520.75
2022-11-20T06:15:56.448Z,99525.44
2022-11-20T06:18:24.635Z,99518.91
2022-11-20T06:21:00.701Z,99527.91
2022-11-20T06:23:31.832Z,99538.53
2022-11-20T06:25:59.911Z,99519.38
2022-11-20T06:28:27.509Z,99526.41
2022-11-20T06:30:57.152Z,99529.84
2022-11-20T06:33:25.233Z,99532.56
2022-11-20T06:35:58.481Z,99529.34
2022-11-20T06:38:28.185Z,99520.81
2022-11-20T06:40:57.331Z,99531.78
2022-11-20T06:43:25.924Z,99528.84
2022-11-20T06:45:54.387Z,99534.09
2022-11-20T06:48:22.191Z,99542.00
2022-11-20T06:50:49.914Z,99552.28
2022-11-20T06:53:17.424Z,99555.34
2022-11-20T06:55:46.040Z,99550.50
2022-11-20T06:58:15.633Z,99557.09
2022-11-20T07:00:43.605Z,99556.72
2022-11-20T07:03:12.140Z,99556.59
2022-11-20T07:05:40.325Z,99552.28
2022-11-20T07:08:08.360Z,99554.09
2022-11-20T07:10:36.515Z,99574.59
2022-11-20T07:13:04.462Z,99567.03
2022-11-20T07:15:33.553Z,99572.22
2022-11-20T07:18:02.607Z,99575.91
2022-11-20T07:20:30.727Z,99581.25
2022-11-20T07:22:58.915Z,99570.53
2022-11-20T07:25:27.450Z,99572.53
2022-11-20T07:27:55.543Z,99564.72
2022-11-20T07:30:23.113Z,99566.06
2022-11-20T07:32:54.522Z,99575.78
2022-11-20T07:35:22.555Z,99572.44
2022-11-20T07:37:50.684Z,99551.28
2022-11-20T07:40:19.230Z,99566.34
2022-11-20T07:42:51.023Z,99570.44
2022-11-20T07:45:20.470Z,99578.78
2022-11-20T07:47:48.431Z,99584.44
2022-11-20T07:50:17.838Z,99585.03
2022-11-20T07:52:45.535Z,99582.94
2022-11-20T07:55:13.660Z,99591.03
2022-11-20T07:57:41.340Z,99601.75
2022-11-20T08:00:10.839Z,99600.56
2022-11-20T08:02:43.098Z,99611.53
2022-11-20T08:05:11.410Z,99609.78
2022-11-20T08:07:47.925Z,99600.25
2022-11-20T08:10:16.827Z,99598.84
2022-11-20T08:13:04.952Z,99605.16
2022-11-20T08:15:32.834Z,99605.84
2022-11-20T08:18:29.540Z,99608.75
2022-11-20T08:20:52.258Z,99614.44
2022-11-20T08:23:21.424Z,99613.16
2022-11-20T08:25:51.404Z,99616.41
2022-11-20T08:28:21.832Z,99624.56
2022-11-20T08:30:51.124Z,99617.31
2022-11-20T08:33:19.482Z,99617.16
2022-11-20T08:35:47.070Z,99617.50
2022-11-20T08:38:15.118Z,99626.84
2022-11-20T08:41:05.181Z,99625.28
2022-11-20T08:43:32.889Z,99634.84
2022-11-20T08:46:00.447Z,99633.50
2022-11-20T08:48:29.218Z,99636.41
2022-11-20T08:50:59.551Z,99635.56
2022-11-20T08:53:27.562Z,99635.38
2022-11-20T08:55:58.751Z,99633.94
2022-11-20T08:58:26.625Z,99635.94
2022-11-20T09:00:54.390Z,99634.59
2022-11-20T09:03:26.382Z,99623.94
2022-11-20T09:05:59.455Z,99622.53
2022-11-20T09:08:27.372Z,99626.28
2022-11-20T09:10:58.469Z,99630.81
2022-11-20T09:13:26.804Z,99629.03
2022-11-20T09:15:55.012Z,99646.41
2022-11-20T09:18:22.834Z,99649.22
2022-11-20T09:20:50.597Z,99652.53
2022-11-20T09:23:19.046Z,99648.56
2022-11-20T09:25:46.715Z,99644.69
2022-11-20T09:28:19.385Z,99644.22
2022-11-20T09:30:47.010Z,99648.91
2022-11-20T09:33:15.343Z,99647.41
2022-11-20T09:35:44.422Z,99654.78
2022-11-20T09:38:12.706Z,99644.56
2022-11-20T09:40:42.679Z,99634.56
2022-11-20T09:43:14.317Z,99643.38
2022-11-20T09:45:52.900Z,99645.53
2022-11-20T09:48:27.132Z,99640.50
2022-11-20T09:50:58.140Z,99643.66
2022-11-20T09:53:31.640Z,99646.34
2022-11-20T09:55:59.672Z,99649.56
2022-11-20T09:58:33.415Z,99640.91
2022-11-20T10:01:08.195Z,99641.63
2022-11-20T10:03:40.187Z,99631.72
2022-11-20T10:06:16.141Z,99628.84
2022-11-20T10:08:46.873Z,99637.06
2022-11-20T10:11:19.225Z,99649.69
2022-11-20T10:13:51.382Z,99632.69
2022-11-20T10:16:27.908Z,99632.66
2022-11-20T10:19:04.229Z,99633.69
2022-11-20T10:21:41.269Z,99632.13
2022-11-20T10:24:38.497Z,99630.03
2022-11-20T10:27:13.326Z,99617.41
2022-11-20T10:29:47.841Z,99623.47
2022-11-20T10:32:18.521Z,99622.75
2022-11-20T10:34:52.739Z,99620.59
2022-11-20T10:37:23.390Z,99618.50
2022-11-20T10:39:53.897Z,99610.00
2022-11-20T10:42:29.461Z,99601.41
2022-11-20T10:45:06.003Z,99601.91
2022-11-20T10:47:37.001Z,99596.63
2022-11-20T10:50:06.812Z,99601.06
2022-11-20T10:52:41.205Z,99598.91
2022-11-20T10:55:18.594Z,99605.03
2022-11-20T10:57:55.400Z,99602.53
2022-11-20T11:00:24.096Z,99602.09
2022-11-20T11:02:54.145Z,99596.97
2022-11-20T11:05:29.933Z,99602.84
2022-11-20T11:07:59.429Z,99594.94
2022-11-20T11:10:30.944Z,99584.34
2022-11-20T11:12:59.101Z,99581.66
2022-11-20T11:15:28.832Z,99573.38
2022-11-20T11:17:58.886Z,99578.28
2022-11-20T11:20:28.455Z,99576.41
2022-11-20T11:23:00.362Z,99572.75
2022-11-20T11:25:30.274Z,99570.06
2022-11-20T11:27:59.393Z,99568.47
2022-11-20T11:30:29.557Z,99572.31
2022-11-20T11:33:11.324Z,99570.22
2022-11-20T11:35:49.894Z,99570.13
2022-11-20T11:38:24.996Z,99564.97
2022-11-20T11:40:55.846Z,99574.19
2022-11-20T11:43:43.493Z,99569.41
2022-11-20T11:46:26.590Z,99566.50
2022-11-20T11:49:04.000Z,99563.50
2022-11-20T11:51:39.087Z,99561.88
2022-11-20T11:54:12.804Z,99547.09
2022-11-20T11:56:40.962Z,99544.63
2022-11-20T11:59:12.818Z,99537.41
2022-11-20T12:01:46.401Z,99544.38
2022-11-20T12:04:19.622Z,99538.22
2022-11-20T12:06:53.179Z,99542.69
2022-11-20T12:09:24.376Z,99538.84
2022-11-20T12:11:58.374Z,99544.03
2022-11-20T12:14:34.949Z,99531.25
2022-11-20T12:17:03.916Z,99533.16
2022-11-20T12:19:35.737Z,99534.69
2022-11-20T12:22:07.443Z,99528.19
2022-11-20T12:24:54.086Z,99524.22
2022-11-20T12:27:41.377Z,99532.41
2022-11-20T12:30:10.429Z,99531.81
2022-11-20T12:32:45.796Z,99529.34
2022-11-20T12:35:23.285Z,99522.81
2022-11-20T12:37:55.502Z,99514.28
2022-11-20T12:40:29.572Z,99509.88
2022-11-20T12:43:21.258Z,99514.53
2022-11-20T12:46:09.926Z,99518.97
2022-11-20T12:48:55.535Z,99518.34
2022-11-20T12:51:50.881Z,99521.03
2022-11-20T12:54:33.791Z,99527.84
2022-11-20T12:57:05.535Z,99524.06
2022-11-20T12:59:45.089Z,99508.50
2022-11-20T13:02:20.889Z,99503.63
2022-11-20T13:04:58.045Z,99498.31
2022-11-20T13:07:32.121Z,99495.53
2022-11-20T13:10:02.441Z,99498.56
2022-11-20T13:12:35.619Z,99498.06
2022-11-20T13:15:07.377Z,99501.03
2022-11-20T13:17:37.761Z,99499.56
2022-11-20T13:20:08.347Z,99491.31
2022-11-20T13:22:47.398Z,99497.78
2022-11-20T13:25:24.906Z,99483.00
2022-11-20T13:27:52.784Z,99480.19
2022-11-20T13:30:21.849Z,99465.63
2022-11-20T13:32:50.619Z,99464.56
2022-11-20T13:35:26.177Z,99474.00
2022-11-20T13:38:02.844Z,99469.66
2022-11-20T13:40:30.869Z,99460.66
2022-11-20T13:43:03.514Z,99456.34
2022-11-20T13:45:32.288Z,99459.41
2022-11-20T13:48:02.730Z,99457.00
2022-11-20T13:50:42.737Z,99452.59
2022-11-20T13:53:19.166Z,99449.28
2022-11-20T13:55:51.509Z,99445.69
2022-11-20T13:58:29.497Z,99447.53
2022-11-20T14:00:59.338Z,99446.88
2022-11-20T14:03:59.093Z,99445.13
2022-11-20T14:06:21.199Z,99444.88
2022-11-20T14:08:51.582Z,99451.41
2022-11-20T14:11:23.427Z,99444.22
2022-11-20T14:13:55.947Z,99437.59
2022-11-20T14:16:23.879Z,99432.13
2022-11-20T14:18:51.551Z,99428.00
2022-11-20T14:21:29.791Z,99424.81
2022-11-20T14:24:06.550Z,99409.56
2022-11-20T14:26:34.945Z,99404.44
2022-11-20T14:29:03.190Z,99392.28
2022-11-20T14:31:31.757Z,99400.31
2022-11-20T14:33:59.556Z,99402.06
2022-11-20T14:36:27.725Z,99401.97
2022-11-20T14:38:55.655Z,99408.13
2022-11-20T14:41:25.541Z,99399.84
2022-11-20T14:43:55.554Z,99398.41
2022-11-20T14:46:24.307Z,99386.22
2022-11-20T14:48:52.990Z,99379.38
2022-11-20T14:51:31.945Z,99378.88
2022-11-20T14:54:10.011Z,99373.13
2022-11-20T14:56:39.196Z,99367.09
2022-11-20T14:59:06.977Z,99365.31
2022-11-20T15:01:35.488Z,99370.91
2022-11-20T15:04:04.174Z,99365.31
2022-11-20T15:06:34.971Z,99368.22
2022-11-20T15:09:06.959Z,99371.13
2022-11-20T15:11:36.599Z,99363.56
2022-11-20T15:14:07.272Z,99366.91
2022-11-20T15:16:35.286Z,99350.34
2022-11-20T15:19:04.864Z,99359.63
2022-11-20T15:21:32.540Z,99362.00
2022-11-20T15:24:01.889Z,99358.19
2022-11-20T15:26:29.973Z,99359.22
2022-11-20T15:28:57.788Z,99353.00
2022-11-20T15:31:27.050Z,99352.31
2022-11-20T15:33:55.018Z,99356.56
2022-11-20T15:36:23.075Z,99344.47
2022-11-20T15:38:50.795Z,99340.56
2022-11-20T15:41:18.760Z,99339.16
2022-11-20T15:43:46.711Z,99338.25
2022-11-20T15:46:16.087Z,99333.50
2022-11-20T15:48:48.351Z,99336.16
2022-11-20T15:51:22.064Z,99331.63
2022-11-20T15:53:49.949Z,99324.44
2022-11-20T15:56:17.944Z,99330.47
2022-11-20T15:58:45.741Z,99328.69
2022-11-20T16:01:15.345Z,99318.38
2022-11-20T16:03:43.482Z,99309.28
2022-11-20T16:06:12.600Z,99297.69
2022-11-20T16:08:40.406Z,99301.09
2022-11-20T16:11:10.662Z,99295.19
2022-11-20T16:13:57.806Z,99298.84
2022-11-20T16:16:29.572Z,99298.22
2022-11-20T16:18:57.210Z,99298.09
2022-11-20T16:21:31.798Z,99288.78
2022-11-20T16:24:00.937Z,99292.50
2022-11-20T16:26:29.128Z,99287.59
2022-11-20T16:29:00.205Z,99285.75
2022-11-20T16:31:28.353Z,99284.25
2022-11-20T16:33:57.703Z,99282.09
2022-11-20T16:36:28.370Z,99277.25
2022-11-20T16:38:57.028Z,99277.53
2022-11-20T16:41:26.714Z,99270.91
2022-11-20T16:43:55.174Z,99267.47
2022-11-20T16:46:23.594Z,99262.91
2022-11-20T16:48:54.506Z,99257.75
2022-11-20T16:51:22.577Z,99263.84
2022-11-20T16:53:55.922Z,99261.88
2022-11-20T16:56:25.204Z,99260.81
2022-11-20T16:58:54.474Z,99257.09
2022-11-20T17:01:23.478Z,99254.53
2022-11-20T17:03:55.551Z,99258.38
2022-11-20T17:06:25.219Z,99251.97
2022-11-20T17:12:19.779Z,99252.44
2022-11-20T17:15:00.415Z,99246.00
2022-11-20T17:17:49.111Z,99238.81
2022-11-20T17:57:52.364Z,99197.31
2022-11-20T18:52:14.169Z,99110.00
2022-11-20T18:54:43.736Z,99110.69
2022-11-20T18:57:14.803Z,99106.19
2022-11-20T18:59:44.198Z,99102.41
2022-11-20T19:02:13.096Z,99107.63
2022-11-20T19:04:41.738Z,99101.19
2022-11-20T19:07:11.885Z,99105.88
2022-11-20T19:09:42.277Z,99102.44
2022-11-20T19:12:11.575Z,99094.00
2022-11-20T19:14:39.947Z,99104.41
2022-11-20T19:17:08.058Z,99104.50
2022-11-20T19:19:36.707Z,99089.78
2022-11-20T19:22:05.519Z,99089.69
2022-11-20T19:24:34.007Z,99079.59
2022-11-20T19:27:04.475Z,99085.47
2022-11-20T19:29:33.678Z,99090.88
2022-11-20T19:32:04.990Z,99086.94
2022-11-20T19:34:33.019Z,99079.84
2022-11-20T19:37:01.174Z,99074.47
2022-11-20T19:39:30.153Z,99069.84
2022-11-20T19:41:58.260Z,99070.16
2022-11-20T19:44:28.858Z,99075.19
2022-11-20T19:46:58.758Z,99070.44
2022-11-20T19:49:27.612Z,99075.28
2022-11-20T19:51:56.462Z,99062.91
2022-11-20T19:54:24.335Z,99072.00
2022-11-20T19:56:53.090Z,99073.78
2022-11-20T19:59:23.613Z,99061.81
2022-11-20T20:01:56.399Z,99060.78
2022-11-20T20:04:24.235Z,99056.34
2022-11-20T20:06:52.514Z,99050.63
2022-11-20T20:09:23.645Z,99050.63
2022-11-20T20:11:54.318Z,99040.72
2022-11-20T20:14:26.871Z,99040.41
2022-11-20T20:16:57.192Z,99048.13
2022-11-20T20:19:25.172Z,99048.13
2022-11-20T20:21:53.840Z,99038.59
2022-11-20T20:24:21.723Z,99034.91
2022-11-20T20:26:57.817Z,99037.28
2022-11-20T20:29:26.831Z,99042.41
2022-11-20T20:31:56.913Z,99037.97
2022-11-20T20:34:29.901Z,99030.53
2022-11-20T20:36:57.800Z,99022.91
2022-11-20T20:39:29.250Z,99019.09
2022-11-20T20:41:57.113Z,99020.59
2022-11-20T20:44:41.950Z,99015.19
2022-11-20T20:47:12.019Z,99015.13
2022-11-20T20:49:45.386Z,99012.38
2022-11-20T20:52:15.161Z,99008.66
2022-11-20T20:54:43.275Z,99006.19
2022-11-20T20:57:11.949Z,99001.03
2022-11-20T20:59:39.769Z,99005.63
2022-11-20T21:02:07.550Z,99014.25
2022-11-20T21:04:36.734Z,99017.59
2022-11-20T21:07:06.600Z,99019.31
2022-11-20T21:09:34.426Z,99010.56
2022-11-20T21:12:02.075Z,99022.53
2022-11-20T21:14:29.879Z,99029.69
2022-11-20T21:16:57.727Z,99024.16
2022-11-20T21:19:26.528Z,99018.94
2022-11-20T21:22:00.687Z,99018.47
2022-11-20T21:24:29.285Z,99023.19
2022-11-20T21:26:57.138Z,99026.47
2022-11-20T21:29:25.858Z,99022.06
2022-11-20T21:31:54.006Z,99023.31
2022-11-20T21:34:23.719Z,99022.81
2022-11-20T21:36:51.780Z,99020.63
2022-11-20T21:39:23.300Z,99030.72
2022-11-20T21:41:51.142Z,99031.22
2022-11-20T21:44:34.101Z,99035.25
2022-11-20T21:47:02.857Z,99034.75
2022-11-20T21:49:30.984Z,99043.00
2022-11-20T21:51:58.917Z,99042.72
2022-11-20T21:54:28.073Z,99039.13
2022-11-20T21:56:56.366Z,99038.88
2022-11-20T21:59:24.898Z,99038.25
2022-11-20T22:01:53.779Z,99035.06
2022-11-20T22:04:23.110Z,99032.25
2022-11-20T22:06:51.346Z,99035.47
2022-11-20T22:09:19.264Z,99037.94
2022-11-20T22:11:50.801Z,99038.56
2022-11-20T22:14:20.504Z,99029.88
2022-11-20T22:16:49.063Z,99041.78
2022-11-20T22:19:16.925Z,99036.34
2022-11-20T22:21:44.930Z,99034.06
2022-11-20T22:24:13.470Z,99038.38
2022-11-20T22:26:41.536Z,99034.34
2022-11-20T22:29:14.931Z,99028.25
2022-11-20T22:31:42.907Z,99027.25
2022-11-20T22:34:11.811Z,99023.72
2022-11-20T22:36:39.949Z,99026.44
2022-11-20T22:39:08.358Z,99023.00
2022-11-20T22:41:36.059Z,99028.25
2022-11-20T22:44:05.360Z,99029.84
2022-11-20T22:46:35.060Z,99031.50
2022-11-20T22:49:03.895Z,99042.88
2022-11-20T22:51:32.795Z,99033.41
2022-11-20T22:54:00.988Z,99029.34
2022-11-20T22:56:28.877Z,99030.19
2022-11-20T22:58:57.347Z,99027.53
2022-11-20T23:01:26.343Z,99033.59
2022-11-20T23:03:56.894Z,99029.75
2022-11-20T23:06:24.835Z,99038.13
2022-11-20T23:08:53.385Z,99039.78
2022-11-20T23:11:21.729Z,99037.63
2022-11-20T23:13:53.958Z,99038.44
2022-11-20T23:16:21.957Z,99041.13
2022-11-20T23:18:49.605Z,99049.25
2022-11-20T23:21:19.521Z,99041.63
2022-11-20T23:23:49.174Z,99049.34
2022-11-20T23:26:18.270Z,99048.56
2022-11-20T23:28:46.526Z,99054.25
2022-11-20T23:31:14.981Z,99060.78
2022-11-20T23:33:43.824Z,99061.22
2022-11-20T23:36:12.011Z,99069.78
2022-11-20T23:38:41.429Z,99068.88
2022-11-20T23:41:09.196Z,99071.13
2022-11-20T23:43:37.014Z,99071.47
2022-11-20T23:46:05.116Z,99071.69
2022-11-20T23:48:34.950Z,99072.47
2022-11-20T23:51:02.972Z,99057.91
2022-11-20T23:53:30.892Z,99051.38
2022-11-20T23:56:01.532Z,99054.75
2022-11-20T23:58:31.654Z,99051.00
